sensor_id;sensor_type;location;lat;lon;timestamp;pressure;altitude;pressure_sealevel;temperature;humidity
68859;BME280;55864;49.238;8.092;2023-09-19T00:01:21;98924.09;;;17.80;82.84
68859;BME280;55864;49.238;8.092;2023-09-19T00:03:21;98933.00;;;17.53;83.27
68859;BME280;55864;49.238;8.092;2023-09-19T00:05:22;98934.06;;;17.24;85.96
68859;BME280;55864;49.238;8.092;2023-09-19T00:07:22;98938.50;;;17.51;84.22
68859;BME280;55864;49.238;8.092;2023-09-19T00:09:23;98935.69;;;17.59;83.52
68859;BME280;55864;49.238;8.092;2023-09-19T00:11:23;98930.22;;;17.80;82.73
68859;BME280;55864;49.238;8.092;2023-09-19T00:13:24;98932.84;;;17.74;83.34
68859;BME280;55864;49.238;8.092;2023-09-19T00:15:26;98939.63;;;17.76;83.31
68859;BME280;55864;49.238;8.092;2023-09-19T00:17:27;98943.47;;;17.74;83.75
68859;BME280;55864;49.238;8.092;2023-09-19T00:19:29;98946.91;;;17.55;84.11
68859;BME280;55864;49.238;8.092;2023-09-19T00:21:31;98943.88;;;17.64;83.89
68859;BME280;55864;49.238;8.092;2023-09-19T00:23:32;98946.34;;;17.79;83.93
68859;BME280;55864;49.238;8.092;2023-09-19T00:25:32;98948.63;;;17.82;83.36
68859;BME280;55864;49.238;8.092;2023-09-19T00:27:33;98956.34;;;17.70;84.00
68859;BME280;55864;49.238;8.092;2023-09-19T00:29:34;98947.59;;;17.83;83.55
68859;BME280;55864;49.238;8.092;2023-09-19T00:31:36;98950.38;;;17.55;84.40
68859;BME280;55864;49.238;8.092;2023-09-19T00:33:36;98952.44;;;17.60;84.63
68859;BME280;55864;49.238;8.092;2023-09-19T00:35:37;98961.81;;;17.56;84.67
68859;BME280;55864;49.238;8.092;2023-09-19T00:37:38;98957.81;;;17.73;84.30
68859;BME280;55864;49.238;8.092;2023-09-19T00:39:38;98963.13;;;17.79;83.73
68859;BME280;55864;49.238;8.092;2023-09-19T00:41:39;98952.91;;;17.76;84.22
68859;BME280;55864;49.238;8.092;2023-09-19T00:43:39;98948.41;;;17.83;83.38
68859;BME280;55864;49.238;8.092;2023-09-19T00:45:43;98959.47;;;17.87;83.55
68859;BME280;55864;49.238;8.092;2023-09-19T00:47:48;98961.72;;;17.97;83.28
68859;BME280;55864;49.238;8.092;2023-09-19T00:49:49;98956.59;;;17.88;83.72
68859;BME280;55864;49.238;8.092;2023-09-19T00:51:49;98956.66;;;18.15;82.28
68859;BME280;55864;49.238;8.092;2023-09-19T00:53:50;98965.03;;;18.05;82.64
68859;BME280;55864;49.238;8.092;2023-09-19T00:55:51;98965.03;;;18.25;81.54
68859;BME280;55864;49.238;8.092;2023-09-19T00:57:52;98959.50;;;17.94;83.00
68859;BME280;55864;49.238;8.092;2023-09-19T00:59:53;98960.34;;;18.14;82.60
68859;BME280;55864;49.238;8.092;2023-09-19T01:01:56;98966.03;;;17.91;83.54
68859;BME280;55864;49.238;8.092;2023-09-19T01:03:58;98963.16;;;17.86;84.28
68859;BME280;55864;49.238;8.092;2023-09-19T01:05:59;98964.78;;;17.80;84.55
68859;BME280;55864;49.238;8.092;2023-09-19T01:08:00;98971.50;;;17.76;84.92
68859;BME280;55864;49.238;8.092;2023-09-19T01:10:00;98967.66;;;17.92;84.24
68859;BME280;55864;49.238;8.092;2023-09-19T01:12:04;98969.69;;;17.83;84.00
68859;BME280;55864;49.238;8.092;2023-09-19T01:14:15;98976.41;;;17.73;84.78
68859;BME280;55864;49.238;8.092;2023-09-19T01:16:26;98974.00;;;17.84;84.28
68859;BME280;55864;49.238;8.092;2023-09-19T01:18:35;98979.19;;;17.58;84.98
68859;BME280;55864;49.238;8.092;2023-09-19T01:20:45;98974.38;;;17.81;84.59
68859;BME280;55864;49.238;8.092;2023-09-19T01:23:01;98970.38;;;17.51;85.61
68859;BME280;55864;49.238;8.092;2023-09-19T01:25:27;98975.53;;;17.66;85.41
68859;BME280;55864;49.238;8.092;2023-09-19T01:27:53;98991.94;;;17.76;84.59
68859;BME280;55864;49.238;8.092;2023-09-19T01:30:09;98983.75;;;17.77;84.94
68859;BME280;55864;49.238;8.092;2023-09-19T01:32:11;98983.13;;;17.75;84.92
68859;BME280;55864;49.238;8.092;2023-09-19T01:34:13;98990.69;;;17.72;85.24
68859;BME280;55864;49.238;8.092;2023-09-19T01:36:14;98985.81;;;17.82;84.93
68859;BME280;55864;49.238;8.092;2023-09-19T01:38:15;98993.00;;;17.88;84.35
68859;BME280;55864;49.238;8.092;2023-09-19T01:40:18;98993.38;;;17.78;84.66
68859;BME280;55864;49.238;8.092;2023-09-19T01:42:28;98991.31;;;17.74;85.18
68859;BME280;55864;49.238;8.092;2023-09-19T01:44:39;99000.78;;;17.90;84.33
68859;BME280;55864;49.238;8.092;2023-09-19T01:46:42;98997.50;;;17.88;83.83
68859;BME280;55864;49.238;8.092;2023-09-19T01:48:48;98997.50;;;17.94;84.55
68859;BME280;55864;49.238;8.092;2023-09-19T01:50:55;98997.13;;;17.97;84.00
68859;BME280;55864;49.238;8.092;2023-09-19T01:53:03;99000.59;;;17.98;84.37
68859;BME280;55864;49.238;8.092;2023-09-19T01:55:08;99004.72;;;18.07;84.78
68859;BME280;55864;49.238;8.092;2023-09-19T01:57:15;99009.94;;;17.87;85.32
68859;BME280;55864;49.238;8.092;2023-09-19T01:59:21;99020.38;;;17.88;85.05
68859;BME280;55864;49.238;8.092;2023-09-19T02:01:25;99009.28;;;17.72;85.43
68859;BME280;55864;49.238;8.092;2023-09-19T02:03:28;99017.41;;;17.57;86.51
68859;BME280;55864;49.238;8.092;2023-09-19T02:05:29;99024.66;;;17.83;85.62
68859;BME280;55864;49.238;8.092;2023-09-19T02:07:30;99024.91;;;17.88;85.25
68859;BME280;55864;49.238;8.092;2023-09-19T02:09:30;99016.25;;;17.79;85.73
68859;BME280;55864;49.238;8.092;2023-09-19T02:11:31;99018.25;;;17.64;86.83
68859;BME280;55864;49.238;8.092;2023-09-19T02:13:31;99015.03;;;17.75;86.23
68859;BME280;55864;49.238;8.092;2023-09-19T02:15:32;99019.28;;;17.70;85.47
68859;BME280;55864;49.238;8.092;2023-09-19T02:17:33;99026.47;;;17.35;87.37
68859;BME280;55864;49.238;8.092;2023-09-19T02:19:34;99032.31;;;17.58;86.55
68859;BME280;55864;49.238;8.092;2023-09-19T02:21:35;99028.41;;;17.54;86.41
68859;BME280;55864;49.238;8.092;2023-09-19T02:23:36;99024.03;;;17.40;85.51
68859;BME280;55864;49.238;8.092;2023-09-19T02:25:36;99025.34;;;17.23;85.79
68859;BME280;55864;49.238;8.092;2023-09-19T02:27:37;99024.84;;;17.41;85.93
68859;BME280;55864;49.238;8.092;2023-09-19T02:29:37;99026.38;;;17.56;84.80
68859;BME280;55864;49.238;8.092;2023-09-19T02:31:38;99029.84;;;17.57;83.90
68859;BME280;55864;49.238;8.092;2023-09-19T02:33:38;99032.94;;;17.60;83.61
68859;BME280;55864;49.238;8.092;2023-09-19T02:35:40;99035.31;;;17.49;83.79
68859;BME280;55864;49.238;8.092;2023-09-19T02:37:41;99043.66;;;17.46;83.99
68859;BME280;55864;49.238;8.092;2023-09-19T02:39:41;99028.41;;;17.54;83.07
68859;BME280;55864;49.238;8.092;2023-09-19T02:41:42;99041.53;;;17.62;82.06
68859;BME280;55864;49.238;8.092;2023-09-19T02:43:44;99044.88;;;17.43;82.90
68859;BME280;55864;49.238;8.092;2023-09-19T02:45:46;99051.09;;;17.50;83.15
68859;BME280;55864;49.238;8.092;2023-09-19T02:47:47;99050.53;;;17.61;83.13
68859;BME280;55864;49.238;8.092;2023-09-19T02:49:47;99046.09;;;17.75;82.09
68859;BME280;55864;49.238;8.092;2023-09-19T02:51:49;99048.03;;;17.53;82.40
68859;BME280;55864;49.238;8.092;2023-09-19T02:53:50;99047.81;;;17.55;81.99
68859;BME280;55864;49.238;8.092;2023-09-19T02:55:51;99046.44;;;17.31;83.14
68859;BME280;55864;49.238;8.092;2023-09-19T02:57:53;99055.06;;;17.40;82.92
68859;BME280;55864;49.238;8.092;2023-09-19T02:59:54;99041.22;;;17.44;82.35
68859;BME280;55864;49.238;8.092;2023-09-19T03:01:55;99049.34;;;17.36;81.99
68859;BME280;55864;49.238;8.092;2023-09-19T03:03:55;99054.88;;;17.41;81.95
68859;BME280;55864;49.238;8.092;2023-09-19T03:05:56;99048.84;;;17.26;82.61
68859;BME280;55864;49.238;8.092;2023-09-19T03:07:59;99052.91;;;17.50;81.51
68859;BME280;55864;49.238;8.092;2023-09-19T03:09:59;99052.34;;;17.61;81.15
68859;BME280;55864;49.238;8.092;2023-09-19T03:12:00;99061.16;;;17.34;81.36
68859;BME280;55864;49.238;8.092;2023-09-19T03:14:01;99062.50;;;17.51;80.71
68859;BME280;55864;49.238;8.092;2023-09-19T03:16:02;99071.06;;;17.46;81.55
68859;BME280;55864;49.238;8.092;2023-09-19T03:18:04;99069.28;;;17.26;81.97
68859;BME280;55864;49.238;8.092;2023-09-19T03:20:06;99074.38;;;17.48;80.74
68859;BME280;55864;49.238;8.092;2023-09-19T03:22:06;99070.69;;;17.49;80.76
68859;BME280;55864;49.238;8.092;2023-09-19T03:24:08;99068.88;;;17.56;80.19
68859;BME280;55864;49.238;8.092;2023-09-19T03:26:09;99067.06;;;17.29;81.17
68859;BME280;55864;49.238;8.092;2023-09-19T03:28:10;99069.69;;;17.50;79.82
68859;BME280;55864;49.238;8.092;2023-09-19T03:30:11;99076.63;;;17.51;79.86
68859;BME280;55864;49.238;8.092;2023-09-19T03:32:12;99074.19;;;17.56;79.34
68859;BME280;55864;49.238;8.092;2023-09-19T03:34:12;99078.38;;;17.72;78.53
68859;BME280;55864;49.238;8.092;2023-09-19T03:36:13;99085.13;;;17.74;77.91
68859;BME280;55864;49.238;8.092;2023-09-19T03:38:14;99083.75;;;17.51;77.97
68859;BME280;55864;49.238;8.092;2023-09-19T03:40:16;99086.81;;;17.48;78.61
68859;BME280;55864;49.238;8.092;2023-09-19T03:42:17;99086.94;;;17.40;78.84
68859;BME280;55864;49.238;8.092;2023-09-19T03:44:18;99090.31;;;17.48;77.46
68859;BME280;55864;49.238;8.092;2023-09-19T03:46:18;99098.16;;;17.35;78.80
68859;BME280;55864;49.238;8.092;2023-09-19T03:48:20;99091.66;;;17.17;79.82
68859;BME280;55864;49.238;8.092;2023-09-19T03:50:21;99096.00;;;17.24;79.91
68859;BME280;55864;49.238;8.092;2023-09-19T03:52:21;99096.13;;;17.37;79.62
68859;BME280;55864;49.238;8.092;2023-09-19T03:54:22;99099.78;;;17.36;79.88
68859;BME280;55864;49.238;8.092;2023-09-19T03:56:24;99095.88;;;17.32;79.39
68859;BME280;55864;49.238;8.092;2023-09-19T03:58:25;99090.44;;;17.47;78.49
68859;BME280;55864;49.238;8.092;2023-09-19T04:00:25;99092.78;;;17.29;77.66
68859;BME280;55864;49.238;8.092;2023-09-19T04:02:25;99092.56;;;17.24;78.26
68859;BME280;55864;49.238;8.092;2023-09-19T04:04:26;99094.03;;;17.33;76.78
68859;BME280;55864;49.238;8.092;2023-09-19T04:06:26;99100.69;;;17.22;77.48
68859;BME280;55864;49.238;8.092;2023-09-19T04:08:27;99108.50;;;17.30;77.46
68859;BME280;55864;49.238;8.092;2023-09-19T04:10:28;99100.34;;;17.32;77.24
68859;BME280;55864;49.238;8.092;2023-09-19T04:12:30;99103.00;;;17.32;77.31
68859;BME280;55864;49.238;8.092;2023-09-19T04:14:30;99098.03;;;17.22;78.57
68859;BME280;55864;49.238;8.092;2023-09-19T04:16:31;99102.13;;;17.18;78.22
68859;BME280;55864;49.238;8.092;2023-09-19T04:18:32;99104.94;;;17.17;76.82
68859;BME280;55864;49.238;8.092;2023-09-19T04:20:33;99097.22;;;17.22;75.72
68859;BME280;55864;49.238;8.092;2023-09-19T04:22:33;99105.16;;;16.94;76.21
68859;BME280;55864;49.238;8.092;2023-09-19T04:24:34;99101.94;;;16.99;76.06
68859;BME280;55864;49.238;8.092;2023-09-19T04:26:34;99106.19;;;17.21;75.50
68859;BME280;55864;49.238;8.092;2023-09-19T04:28:36;99113.84;;;17.09;76.61
68859;BME280;55864;49.238;8.092;2023-09-19T04:30:36;99107.66;;;16.96;75.97
68859;BME280;55864;49.238;8.092;2023-09-19T04:32:37;99116.19;;;17.19;75.40
68859;BME280;55864;49.238;8.092;2023-09-19T04:34:38;99116.94;;;16.85;77.18
68859;BME280;55864;49.238;8.092;2023-09-19T04:36:39;99122.78;;;17.02;76.63
68859;BME280;55864;49.238;8.092;2023-09-19T04:38:39;99117.78;;;16.92;77.58
68859;BME280;55864;49.238;8.092;2023-09-19T04:40:39;99120.59;;;16.84;78.62
68859;BME280;55864;49.238;8.092;2023-09-19T04:42:40;99120.19;;;17.08;78.58
68859;BME280;55864;49.238;8.092;2023-09-19T04:44:42;99120.53;;;16.99;79.00
68859;BME280;55864;49.238;8.092;2023-09-19T04:46:43;99124.44;;;17.03;78.94
68859;BME280;55864;49.238;8.092;2023-09-19T04:48:43;99124.00;;;16.99;78.76
68859;BME280;55864;49.238;8.092;2023-09-19T04:50:44;99122.47;;;16.90;78.99
68859;BME280;55864;49.238;8.092;2023-09-19T04:52:45;99123.25;;;16.84;79.01
68859;BME280;55864;49.238;8.092;2023-09-19T04:54:45;99118.81;;;17.12;77.68
68859;BME280;55864;49.238;8.092;2023-09-19T04:56:46;99124.13;;;16.91;78.04
68859;BME280;55864;49.238;8.092;2023-09-19T04:58:46;99121.59;;;16.83;78.84
68859;BME280;55864;49.238;8.092;2023-09-19T05:00:48;99122.66;;;16.88;79.02
68859;BME280;55864;49.238;8.092;2023-09-19T05:02:50;99128.03;;;16.74;79.59
68859;BME280;55864;49.238;8.092;2023-09-19T05:04:51;99138.03;;;16.72;79.96
68859;BME280;55864;49.238;8.092;2023-09-19T05:06:51;99140.38;;;16.81;80.48
68859;BME280;55864;49.238;8.092;2023-09-19T05:08:52;99152.56;;;16.97;79.55
68859;BME280;55864;49.238;8.092;2023-09-19T05:10:52;99156.91;;;17.05;79.20
68859;BME280;55864;49.238;8.092;2023-09-19T05:12:53;99157.34;;;16.87;79.76
68859;BME280;55864;49.238;8.092;2023-09-19T05:14:54;99158.34;;;17.07;78.64
68859;BME280;55864;49.238;8.092;2023-09-19T05:16:55;99153.78;;;17.22;78.07
68859;BME280;55864;49.238;8.092;2023-09-19T05:18:56;99171.44;;;16.87;79.30
68859;BME280;55864;49.238;8.092;2023-09-19T05:20:56;99172.66;;;17.06;78.65
68859;BME280;55864;49.238;8.092;2023-09-19T05:23:01;99176.81;;;17.15;79.13
68859;BME280;55864;49.238;8.092;2023-09-19T05:25:01;99177.63;;;17.16;79.09
68859;BME280;55864;49.238;8.092;2023-09-19T05:27:02;99184.66;;;17.23;78.88
68859;BME280;55864;49.238;8.092;2023-09-19T05:29:03;99180.94;;;17.45;77.69
68859;BME280;55864;49.238;8.092;2023-09-19T05:31:03;99186.44;;;17.44;77.21
68859;BME280;55864;49.238;8.092;2023-09-19T05:33:05;99180.41;;;17.29;78.02
68859;BME280;55864;49.238;8.092;2023-09-19T05:35:06;99185.84;;;17.21;78.26
68859;BME280;55864;49.238;8.092;2023-09-19T05:37:07;99189.84;;;17.10;79.21
68859;BME280;55864;49.238;8.092;2023-09-19T05:39:07;99197.25;;;16.79;80.39
68859;BME280;55864;49.238;8.092;2023-09-19T05:41:08;99192.63;;;17.02;79.77
68859;BME280;55864;49.238;8.092;2023-09-19T05:43:08;99194.59;;;16.93;79.99
68859;BME280;55864;49.238;8.092;2023-09-19T05:45:09;99198.34;;;17.06;79.32
68859;BME280;55864;49.238;8.092;2023-09-19T05:47:10;99200.41;;;16.68;80.24
68859;BME280;55864;49.238;8.092;2023-09-19T05:49:12;99206.69;;;16.81;80.26
68859;BME280;55864;49.238;8.092;2023-09-19T05:51:12;99210.19;;;16.82;80.41
68859;BME280;55864;49.238;8.092;2023-09-19T05:53:13;99212.31;;;16.93;80.54
68859;BME280;55864;49.238;8.092;2023-09-19T05:55:14;99210.63;;;16.85;79.77
68859;BME280;55864;49.238;8.092;2023-09-19T05:57:14;99218.31;;;17.02;79.12
68859;BME280;55864;49.238;8.092;2023-09-19T05:59:15;99214.03;;;17.01;78.67
68859;BME280;55864;49.238;8.092;2023-09-19T06:01:15;99209.72;;;16.78;80.12
68859;BME280;55864;49.238;8.092;2023-09-19T06:03:16;99210.19;;;16.67;80.25
68859;BME280;55864;49.238;8.092;2023-09-19T06:05:17;99211.69;;;16.91;79.33
68859;BME280;55864;49.238;8.092;2023-09-19T06:07:18;99215.41;;;16.75;79.62
68859;BME280;55864;49.238;8.092;2023-09-19T06:09:18;99216.34;;;16.68;79.69
68859;BME280;55864;49.238;8.092;2023-09-19T06:11:19;99216.25;;;16.97;78.69
68859;BME280;55864;49.238;8.092;2023-09-19T06:13:19;99224.31;;;16.89;79.28
68859;BME280;55864;49.238;8.092;2023-09-19T06:15:20;99219.78;;;17.04;78.10
68859;BME280;55864;49.238;8.092;2023-09-19T06:17:21;99233.66;;;16.85;78.15
68859;BME280;55864;49.238;8.092;2023-09-19T06:19:22;99231.25;;;16.69;79.71
68859;BME280;55864;49.238;8.092;2023-09-19T06:21:23;99240.09;;;16.76;78.43
68859;BME280;55864;49.238;8.092;2023-09-19T06:23:24;99239.81;;;16.85;78.20
68859;BME280;55864;49.238;8.092;2023-09-19T06:25:24;99241.88;;;16.90;78.45
68859;BME280;55864;49.238;8.092;2023-09-19T06:27:25;99236.47;;;16.62;78.87
68859;BME280;55864;49.238;8.092;2023-09-19T06:29:25;99241.41;;;17.01;78.38
68859;BME280;55864;49.238;8.092;2023-09-19T06:31:26;99241.72;;;17.13;77.75
68859;BME280;55864;49.238;8.092;2023-09-19T06:33:28;99243.81;;;17.17;77.85
68859;BME280;55864;49.238;8.092;2023-09-19T06:35:29;99236.22;;;16.93;77.83
68859;BME280;55864;49.238;8.092;2023-09-19T06:37:33;99236.25;;;17.00;76.85
68859;BME280;55864;49.238;8.092;2023-09-19T06:39:34;99232.91;;;16.91;77.72
68859;BME280;55864;49.238;8.092;2023-09-19T06:41:34;99237.28;;;16.99;77.54
68859;BME280;55864;49.238;8.092;2023-09-19T06:43:42;99240.78;;;16.84;78.42
68859;BME280;55864;49.238;8.092;2023-09-19T06:45:42;99236.97;;;17.08;77.20
68859;BME280;55864;49.238;8.092;2023-09-19T06:47:43;99238.88;;;17.35;75.71
68859;BME280;55864;49.238;8.092;2023-09-19T06:49:43;99240.84;;;17.27;76.39
68859;BME280;55864;49.238;8.092;2023-09-19T06:51:44;99242.09;;;17.31;75.23
68859;BME280;55864;49.238;8.092;2023-09-19T06:53:46;99253.25;;;17.41;74.74
68859;BME280;55864;49.238;8.092;2023-09-19T06:55:46;99242.72;;;17.33;75.24
68859;BME280;55864;49.238;8.092;2023-09-19T06:57:47;99249.56;;;17.42;74.81
68859;BME280;55864;49.238;8.092;2023-09-19T06:59:47;99259.19;;;17.22;75.14
68859;BME280;55864;49.238;8.092;2023-09-19T07:01:48;99260.44;;;17.26;74.29
68859;BME280;55864;49.238;8.092;2023-09-19T07:03:48;99267.84;;;16.94;75.09
68859;BME280;55864;49.238;8.092;2023-09-19T07:05:49;99269.22;;;17.05;75.85
68859;BME280;55864;49.238;8.092;2023-09-19T07:07:49;99275.22;;;17.14;75.35
68859;BME280;55864;49.238;8.092;2023-09-19T07:09:51;99276.22;;;17.34;74.47
68859;BME280;55864;49.238;8.092;2023-09-19T07:11:52;99268.97;;;17.21;74.49
68859;BME280;55864;49.238;8.092;2023-09-19T07:13:52;99266.22;;;17.15;74.84
68859;BME280;55864;49.238;8.092;2023-09-19T07:15:53;99277.69;;;17.15;75.52
68859;BME280;55864;49.238;8.092;2023-09-19T07:17:54;99273.97;;;17.31;74.26
68859;BME280;55864;49.238;8.092;2023-09-19T07:19:55;99286.66;;;17.50;73.43
68859;BME280;55864;49.238;8.092;2023-09-19T07:21:55;99281.94;;;17.31;73.53
68859;BME280;55864;49.238;8.092;2023-09-19T07:23:56;99282.69;;;17.25;74.43
68859;BME280;55864;49.238;8.092;2023-09-19T07:25:58;99292.06;;;17.63;73.03
68859;BME280;55864;49.238;8.092;2023-09-19T07:27:58;99297.47;;;17.69;72.17
68859;BME280;55864;49.238;8.092;2023-09-19T07:29:59;99300.13;;;17.48;71.57
68859;BME280;55864;49.238;8.092;2023-09-19T07:31:59;99301.38;;;17.52;72.36
68859;BME280;55864;49.238;8.092;2023-09-19T07:34:00;99305.44;;;17.69;71.03
68859;BME280;55864;49.238;8.092;2023-09-19T07:36:00;99305.53;;;17.82;70.66
68859;BME280;55864;49.238;8.092;2023-09-19T07:38:01;99311.91;;;17.88;70.91
68859;BME280;55864;49.238;8.092;2023-09-19T07:40:02;99311.72;;;17.90;71.44
68859;BME280;55864;49.238;8.092;2023-09-19T07:42:04;99317.16;;;17.81;72.35
68859;BME280;55864;49.238;8.092;2023-09-19T07:44:05;99321.09;;;17.85;72.43
68859;BME280;55864;49.238;8.092;2023-09-19T07:46:06;99312.84;;;18.02;71.81
68859;BME280;55864;49.238;8.092;2023-09-19T07:48:07;99322.56;;;17.88;71.38
68859;BME280;55864;49.238;8.092;2023-09-19T07:50:07;99327.13;;;18.01;71.38
68859;BME280;55864;49.238;8.092;2023-09-19T07:52:08;99319.66;;;18.11;70.24
68859;BME280;55864;49.238;8.092;2023-09-19T07:54:08;99325.63;;;18.19;70.78
68859;BME280;55864;49.238;8.092;2023-09-19T07:56:10;99336.69;;;18.16;70.04
68859;BME280;55864;49.238;8.092;2023-09-19T07:58:11;99327.03;;;18.15;68.45
68859;BME280;55864;49.238;8.092;2023-09-19T08:00:13;99336.91;;;17.94;69.56
68859;BME280;55864;49.238;8.092;2023-09-19T08:02:13;99337.38;;;18.04;67.07
68859;BME280;55864;49.238;8.092;2023-09-19T08:04:14;99343.31;;;18.06;67.65
68859;BME280;55864;49.238;8.092;2023-09-19T08:06:14;99336.19;;;18.06;68.23
68859;BME280;55864;49.238;8.092;2023-09-19T08:08:15;99346.06;;;18.19;68.97
68859;BME280;55864;49.238;8.092;2023-09-19T08:10:16;99346.91;;;18.19;68.91
68859;BME280;55864;49.238;8.092;2023-09-19T08:12:16;99348.16;;;17.96;68.38
68859;BME280;55864;49.238;8.092;2023-09-19T08:14:18;99344.56;;;17.82;67.80
68859;BME280;55864;49.238;8.092;2023-09-19T08:16:19;99349.06;;;17.81;67.29
68859;BME280;55864;49.238;8.092;2023-09-19T08:18:19;99346.19;;;18.04;67.31
68859;BME280;55864;49.238;8.092;2023-09-19T08:20:20;99352.13;;;18.06;67.58
68859;BME280;55864;49.238;8.092;2023-09-19T08:22:20;99356.38;;;18.01;67.39
68859;BME280;55864;49.238;8.092;2023-09-19T08:24:21;99357.88;;;18.10;67.67
68859;BME280;55864;49.238;8.092;2023-09-19T08:26:21;99362.94;;;18.26;67.10
68859;BME280;55864;49.238;8.092;2023-09-19T08:28:22;99365.81;;;18.31;66.70
68859;BME280;55864;49.238;8.092;2023-09-19T08:30:24;99355.25;;;18.37;66.77
68859;BME280;55864;49.238;8.092;2023-09-19T08:32:24;99358.94;;;18.64;66.43
68859;BME280;55864;49.238;8.092;2023-09-19T08:34:25;99363.28;;;18.78;65.88
68859;BME280;55864;49.238;8.092;2023-09-19T08:36:26;99364.19;;;18.92;65.18
68859;BME280;55864;49.238;8.092;2023-09-19T08:38:27;99360.56;;;19.06;65.02
68859;BME280;55864;49.238;8.092;2023-09-19T08:40:27;99364.44;;;19.10;62.97
68859;BME280;55864;49.238;8.092;2023-09-19T08:42:28;99355.47;;;19.11;63.45
68859;BME280;55864;49.238;8.092;2023-09-19T08:44:28;99355.53;;;19.30;61.73
68859;BME280;55864;49.238;8.092;2023-09-19T08:46:30;99361.53;;;19.39;61.56
68859;BME280;55864;49.238;8.092;2023-09-19T08:48:34;99360.28;;;19.35;61.22
68859;BME280;55864;49.238;8.092;2023-09-19T08:50:43;99359.06;;;19.37;60.55
68859;BME280;55864;49.238;8.092;2023-09-19T08:52:50;99349.50;;;19.62;59.16
68859;BME280;55864;49.238;8.092;2023-09-19T08:54:52;99360.34;;;19.67;59.01
68859;BME280;55864;49.238;8.092;2023-09-19T08:56:54;99357.31;;;19.77;58.80
68859;BME280;55864;49.238;8.092;2023-09-19T08:58:59;99358.03;;;19.38;59.36
68859;BME280;55864;49.238;8.092;2023-09-19T09:01:00;99364.00;;;19.53;58.74
68859;BME280;55864;49.238;8.092;2023-09-19T09:03:03;99359.53;;;19.60;59.92
68859;BME280;55864;49.238;8.092;2023-09-19T09:05:05;99364.41;;;19.57;59.35
68859;BME280;55864;49.238;8.092;2023-09-19T09:07:10;99372.84;;;19.54;59.63
68859;BME280;55864;49.238;8.092;2023-09-19T09:09:11;99368.69;;;19.38;59.65
68859;BME280;55864;49.238;8.092;2023-09-19T09:11:12;99367.56;;;19.20;60.56
68859;BME280;55864;49.238;8.092;2023-09-19T09:13:14;99368.63;;;19.25;59.63
68859;BME280;55864;49.238;8.092;2023-09-19T09:15:15;99369.56;;;19.58;59.66
68859;BME280;55864;49.238;8.092;2023-09-19T09:17:17;99370.81;;;19.62;59.91
68859;BME280;55864;49.238;8.092;2023-09-19T09:19:19;99362.84;;;19.76;58.80
68859;BME280;55864;49.238;8.092;2023-09-19T09:21:19;99368.59;;;19.92;58.72
68859;BME280;55864;49.238;8.092;2023-09-19T09:23:20;99368.81;;;19.91;57.89
68859;BME280;55864;49.238;8.092;2023-09-19T09:25:21;99365.56;;;20.34;57.26
68859;BME280;55864;49.238;8.092;2023-09-19T09:27:22;99370.28;;;20.32;56.31
68859;BME280;55864;49.238;8.092;2023-09-19T09:29:40;99367.56;;;20.52;55.76
68859;BME280;55864;49.238;8.092;2023-09-19T09:31:41;99367.50;;;20.91;53.84
68859;BME280;55864;49.238;8.092;2023-09-19T09:33:52;99370.75;;;21.06;54.64
68859;BME280;55864;49.238;8.092;2023-09-19T09:35:56;99365.28;;;21.32;53.80
68859;BME280;55864;49.238;8.092;2023-09-19T09:37:59;99369.94;;;21.43;53.32
68859;BME280;55864;49.238;8.092;2023-09-19T09:40:00;99360.03;;;21.50;52.78
68859;BME280;55864;49.238;8.092;2023-09-19T09:42:01;99371.56;;;21.51;52.19
68859;BME280;55864;49.238;8.092;2023-09-19T09:44:12;99373.41;;;21.50;52.66
68859;BME280;55864;49.238;8.092;2023-09-19T09:46:14;99362.47;;;21.59;52.21
68859;BME280;55864;49.238;8.092;2023-09-19T09:48:15;99371.63;;;21.38;52.96
68859;BME280;55864;49.238;8.092;2023-09-19T09:50:26;99373.00;;;21.09;52.32
68859;BME280;55864;49.238;8.092;2023-09-19T09:52:28;99369.28;;;20.97;52.95
68859;BME280;55864;49.238;8.092;2023-09-19T09:54:29;99372.47;;;21.38;52.86
68859;BME280;55864;49.238;8.092;2023-09-19T09:56:31;99374.09;;;21.39;53.26
68859;BME280;55864;49.238;8.092;2023-09-19T09:58:32;99367.38;;;21.62;52.35
68859;BME280;55864;49.238;8.092;2023-09-19T10:00:33;99359.44;;;22.11;51.46
68859;BME280;55864;49.238;8.092;2023-09-19T10:02:35;99366.69;;;22.53;50.96
68859;BME280;55864;49.238;8.092;2023-09-19T10:04:36;99364.53;;;22.19;50.73
68859;BME280;55864;49.238;8.092;2023-09-19T10:06:40;99365.31;;;21.64;51.52
68859;BME280;55864;49.238;8.092;2023-09-19T10:08:57;99368.81;;;21.20;52.56
68859;BME280;55864;49.238;8.092;2023-09-19T10:10:58;99367.97;;;21.32;53.55
68859;BME280;55864;49.238;8.092;2023-09-19T10:12:58;99359.81;;;21.14;53.33
68859;BME280;55864;49.238;8.092;2023-09-19T10:15:01;99362.69;;;21.19;52.59
68859;BME280;55864;49.238;8.092;2023-09-19T10:17:05;99361.09;;;20.92;52.85
68859;BME280;55864;49.238;8.092;2023-09-19T10:19:07;99362.25;;;21.22;52.56
68859;BME280;55864;49.238;8.092;2023-09-19T10:21:08;99354.38;;;21.34;52.36
68859;BME280;55864;49.238;8.092;2023-09-19T10:23:11;99349.19;;;21.01;52.34
68859;BME280;55864;49.238;8.092;2023-09-19T10:25:13;99350.50;;;20.66;53.60
68859;BME280;55864;49.238;8.092;2023-09-19T10:27:14;99348.31;;;20.24;54.69
68859;BME280;55864;49.238;8.092;2023-09-19T10:29:14;99348.50;;;20.09;55.08
68859;BME280;55864;49.238;8.092;2023-09-19T10:31:18;99346.03;;;20.47;54.77
68859;BME280;55864;49.238;8.092;2023-09-19T10:33:21;99346.34;;;20.83;54.78
68859;BME280;55864;49.238;8.092;2023-09-19T10:35:22;99352.47;;;20.97;53.66
68859;BME280;55864;49.238;8.092;2023-09-19T10:37:24;99350.38;;;21.12;53.07
68859;BME280;55864;49.238;8.092;2023-09-19T10:39:29;99347.91;;;21.10;53.57
68859;BME280;55864;49.238;8.092;2023-09-19T10:41:32;99347.72;;;21.05;53.56
68859;BME280;55864;49.238;8.092;2023-09-19T10:43:33;99353.69;;;21.07;54.24
68859;BME280;55864;49.238;8.092;2023-09-19T10:45:34;99351.56;;;20.45;55.08